sensor_id;sensor_type;location;lat;lon;timestamp;P1;durP1;ratioP1;P2;durP2;ratioP2
38529;SDS011;24301;54.332;48.386;2022-12-26T00:02:26;20.83;;;9.70;;
38529;SDS011;24301;54.332;48.386;2022-12-26T00:04:52;13.73;;;6.67;;
38529;SDS011;24301;54.332;48.386;2022-12-26T00:07:18;12.33;;;6.73;;
38529;SDS011;24301;54.332;48.386;2022-12-26T00:09:44;12.23;;;7.07;;
38529;SDS011;24301;54.332;48.386;2022-12-26T00:12:10;13.23;;;6.33;;
38529;SDS011;24301;54.332;48.386;2022-12-26T00:14:35;8.83;;;5.77;;
38529;SDS011;24301;54.332;48.386;2022-12-26T00:19:45;12.93;;;8.30;;
38529;SDS011;24301;54.332;48.386;2022-12-26T00:22:11;12.63;;;6.70;;
38529;SDS011;24301;54.332;48.386;2022-12-26T00:27:22;12.70;;;5.57;;
38529;SDS011;24301;54.332;48.386;2022-12-26T00:29:47;10.27;;;5.60;;
38529;SDS011;24301;54.332;48.386;2022-12-26T00:32:13;12.07;;;6.40;;
38529;SDS011;24301;54.332;48.386;2022-12-26T00:34:39;10.60;;;5.93;;
38529;SDS011;24301;54.332;48.386;2022-12-26T00:37:05;10.57;;;5.27;;
38529;SDS011;24301;54.332;48.386;2022-12-26T00:39:31;9.13;;;5.47;;
38529;SDS011;24301;54.332;48.386;2022-12-26T00:41:57;10.67;;;5.87;;
38529;SDS011;24301;54.332;48.386;2022-12-26T00:44:36;12.57;;;7.07;;
38529;SDS011;24301;54.332;48.386;2022-12-26T00:47:02;11.17;;;6.03;;
38529;SDS011;24301;54.332;48.386;2022-12-26T00:49:28;10.70;;;6.80;;
38529;SDS011;24301;54.332;48.386;2022-12-26T00:52:01;12.13;;;7.63;;
38529;SDS011;24301;54.332;48.386;2022-12-26T00:54:27;10.40;;;5.93;;
38529;SDS011;24301;54.332;48.386;2022-12-26T00:59:37;11.57;;;7.23;;
38529;SDS011;24301;54.332;48.386;2022-12-26T01:02:03;9.77;;;5.30;;
38529;SDS011;24301;54.332;48.386;2022-12-26T01:04:49;12.00;;;5.90;;
38529;SDS011;24301;54.332;48.386;2022-12-26T01:07:15;12.87;;;5.73;;
38529;SDS011;24301;54.332;48.386;2022-12-26T01:09:41;9.47;;;5.00;;
38529;SDS011;24301;54.332;48.386;2022-12-26T01:12:07;7.93;;;5.33;;
38529;SDS011;24301;54.332;48.386;2022-12-26T01:14:33;7.47;;;4.87;;
38529;SDS011;24301;54.332;48.386;2022-12-26T01:19:43;9.67;;;6.00;;
38529;SDS011;24301;54.332;48.386;2022-12-26T01:22:09;11.63;;;5.37;;
38529;SDS011;24301;54.332;48.386;2022-12-26T01:24:34;8.40;;;4.90;;
38529;SDS011;24301;54.332;48.386;2022-12-26T01:27:00;11.63;;;6.13;;
38529;SDS011;24301;54.332;48.386;2022-12-26T01:29:26;11.13;;;6.90;;
38529;SDS011;24301;54.332;48.386;2022-12-26T01:31:52;11.93;;;5.97;;
38529;SDS011;24301;54.332;48.386;2022-12-26T01:34:18;10.37;;;5.63;;
38529;SDS011;24301;54.332;48.386;2022-12-26T01:36:44;12.20;;;6.97;;
38529;SDS011;24301;54.332;48.386;2022-12-26T01:39:10;11.33;;;6.60;;
38529;SDS011;24301;54.332;48.386;2022-12-26T01:41:36;9.57;;;5.97;;
38529;SDS011;24301;54.332;48.386;2022-12-26T01:47:15;9.03;;;5.10;;
38529;SDS011;24301;54.332;48.386;2022-12-26T01:49:42;10.13;;;5.63;;
38529;SDS011;24301;54.332;48.386;2022-12-26T01:52:15;8.00;;;4.57;;
38529;SDS011;24301;54.332;48.386;2022-12-26T01:55:00;9.87;;;4.77;;
38529;SDS011;24301;54.332;48.386;2022-12-26T01:57:52;8.63;;;5.67;;
38529;SDS011;24301;54.332;48.386;2022-12-26T02:00:27;8.30;;;4.87;;
38529;SDS011;24301;54.332;48.386;2022-12-26T02:02:53;7.13;;;3.80;;
38529;SDS011;24301;54.332;48.386;2022-12-26T02:05:38;7.77;;;4.70;;
38529;SDS011;24301;54.332;48.386;2022-12-26T02:08:06;8.90;;;5.23;;
38529;SDS011;24301;54.332;48.386;2022-12-26T02:10:40;9.53;;;5.67;;
38529;SDS011;24301;54.332;48.386;2022-12-26T02:13:12;9.07;;;6.33;;
38529;SDS011;24301;54.332;48.386;2022-12-26T02:15:39;11.17;;;5.70;;
38529;SDS011;24301;54.332;48.386;2022-12-26T02:18:06;22.23;;;10.07;;
38529;SDS011;24301;54.332;48.386;2022-12-26T02:20:36;14.60;;;7.27;;
38529;SDS011;24301;54.332;48.386;2022-12-26T02:29:34;25.23;;;10.13;;
38529;SDS011;24301;54.332;48.386;2022-12-26T02:49:17;14.10;;;7.80;;
38529;SDS011;24301;54.332;48.386;2022-12-26T02:51:58;16.10;;;6.77;;
38529;SDS011;24301;54.332;48.386;2022-12-26T02:55:06;12.60;;;6.38;;
38529;SDS011;24301;54.332;48.386;2022-12-26T03:01:25;12.37;;;6.30;;
38529;SDS011;24301;54.332;48.386;2022-12-26T03:04:22;13.43;;;6.50;;
38529;SDS011;24301;54.332;48.386;2022-12-26T03:07:14;11.70;;;7.03;;
38529;SDS011;24301;54.332;48.386;2022-12-26T03:10:24;13.47;;;7.17;;
38529;SDS011;24301;54.332;48.386;2022-12-26T03:13:16;12.57;;;8.07;;
38529;SDS011;24301;54.332;48.386;2022-12-26T03:15:51;11.18;;;6.60;;
38529;SDS011;24301;54.332;48.386;2022-12-26T03:18:40;13.17;;;7.60;;
38529;SDS011;24301;54.332;48.386;2022-12-26T03:21:09;12.53;;;6.90;;
38529;SDS011;24301;54.332;48.386;2022-12-26T03:23:37;11.47;;;6.80;;
38529;SDS011;24301;54.332;48.386;2022-12-26T03:26:08;8.87;;;5.70;;
38529;SDS011;24301;54.332;48.386;2022-12-26T03:32:20;11.03;;;5.67;;
38529;SDS011;24301;54.332;48.386;2022-12-26T03:35:08;10.10;;;6.27;;
38529;SDS011;24301;54.332;48.386;2022-12-26T03:37:41;9.25;;;5.88;;
38529;SDS011;24301;54.332;48.386;2022-12-26T03:46:55;9.87;;;6.67;;
38529;SDS011;24301;54.332;48.386;2022-12-26T03:49:52;12.23;;;6.17;;
38529;SDS011;24301;54.332;48.386;2022-12-26T03:52:44;10.83;;;6.87;;
38529;SDS011;24301;54.332;48.386;2022-12-26T03:59:08;10.77;;;6.33;;
38529;SDS011;24301;54.332;48.386;2022-12-26T04:01:57;11.43;;;5.67;;
38529;SDS011;24301;54.332;48.386;2022-12-26T04:04:46;10.17;;;6.87;;
38529;SDS011;24301;54.332;48.386;2022-12-26T04:07:37;10.63;;;6.50;;
38529;SDS011;24301;54.332;48.386;2022-12-26T04:10:29;10.87;;;6.10;;
38529;SDS011;24301;54.332;48.386;2022-12-26T04:13:29;11.57;;;5.97;;
38529;SDS011;24301;54.332;48.386;2022-12-26T04:16:33;11.80;;;6.33;;
38529;SDS011;24301;54.332;48.386;2022-12-26T04:22:13;9.10;;;4.93;;
38529;SDS011;24301;54.332;48.386;2022-12-26T04:25:18;9.60;;;5.50;;
38529;SDS011;24301;54.332;48.386;2022-12-26T04:28:23;8.80;;;5.17;;
38529;SDS011;24301;54.332;48.386;2022-12-26T04:31:12;9.90;;;5.97;;
38529;SDS011;24301;54.332;48.386;2022-12-26T04:34:05;9.37;;;5.50;;
38529;SDS011;24301;54.332;48.386;2022-12-26T04:36:58;9.17;;;5.40;;
38529;SDS011;24301;54.332;48.386;2022-12-26T04:39:47;9.73;;;5.83;;
38529;SDS011;24301;54.332;48.386;2022-12-26T04:42:34;8.93;;;5.93;;
38529;SDS011;24301;54.332;48.386;2022-12-26T04:45:20;12.03;;;6.30;;
38529;SDS011;24301;54.332;48.386;2022-12-26T04:47:48;10.37;;;6.30;;
38529;SDS011;24301;54.332;48.386;2022-12-26T04:50:34;10.77;;;5.33;;
38529;SDS011;24301;54.332;48.386;2022-12-26T04:53:00;11.73;;;5.00;;
38529;SDS011;24301;54.332;48.386;2022-12-26T04:55:30;11.93;;;6.57;;
38529;SDS011;24301;54.332;48.386;2022-12-26T04:57:57;9.63;;;5.30;;
38529;SDS011;24301;54.332;48.386;2022-12-26T05:00:24;10.53;;;5.47;;
38529;SDS011;24301;54.332;48.386;2022-12-26T05:02:52;11.97;;;5.97;;
38529;SDS011;24301;54.332;48.386;2022-12-26T05:05:41;10.53;;;6.10;;
38529;SDS011;24301;54.332;48.386;2022-12-26T05:08:30;9.73;;;5.90;;
38529;SDS011;24301;54.332;48.386;2022-12-26T05:11:18;11.53;;;5.80;;
38529;SDS011;24301;54.332;48.386;2022-12-26T05:13:44;8.23;;;4.80;;
38529;SDS011;24301;54.332;48.386;2022-12-26T05:16:10;9.83;;;5.37;;
38529;SDS011;24301;54.332;48.386;2022-12-26T05:21:38;8.33;;;5.77;;
38529;SDS011;24301;54.332;48.386;2022-12-26T05:24:27;6.93;;;3.97;;
38529;SDS011;24301;54.332;48.386;2022-12-26T05:27:18;8.27;;;5.00;;
38529;SDS011;24301;54.332;48.386;2022-12-26T05:30:03;7.67;;;4.47;;
38529;SDS011;24301;54.332;48.386;2022-12-26T05:32:30;7.90;;;4.93;;
38529;SDS011;24301;54.332;48.386;2022-12-26T05:37:40;7.60;;;4.70;;
38529;SDS011;24301;54.332;48.386;2022-12-26T05:40:06;7.23;;;4.77;;
38529;SDS011;24301;54.332;48.386;2022-12-26T05:42:32;6.63;;;4.10;;
38529;SDS011;24301;54.332;48.386;2022-12-26T05:44:58;8.47;;;4.60;;
38529;SDS011;24301;54.332;48.386;2022-12-26T05:47:24;6.40;;;4.33;;
38529;SDS011;24301;54.332;48.386;2022-12-26T05:49:50;7.07;;;4.03;;
38529;SDS011;24301;54.332;48.386;2022-12-26T05:52:16;7.03;;;4.30;;
38529;SDS011;24301;54.332;48.386;2022-12-26T05:54:42;7.20;;;4.67;;
38529;SDS011;24301;54.332;48.386;2022-12-26T05:57:10;7.47;;;5.03;;
38529;SDS011;24301;54.332;48.386;2022-12-26T05:59:36;7.33;;;4.27;;
38529;SDS011;24301;54.332;48.386;2022-12-26T06:02:02;7.07;;;4.40;;
38529;SDS011;24301;54.332;48.386;2022-12-26T06:04:28;8.17;;;4.70;;
38529;SDS011;24301;54.332;48.386;2022-12-26T06:06:55;5.90;;;4.03;;
38529;SDS011;24301;54.332;48.386;2022-12-26T06:09:21;6.23;;;4.50;;
38529;SDS011;24301;54.332;48.386;2022-12-26T06:11:48;6.40;;;4.40;;
38529;SDS011;24301;54.332;48.386;2022-12-26T06:14:14;7.90;;;4.40;;
38529;SDS011;24301;54.332;48.386;2022-12-26T06:16:40;7.40;;;4.60;;
38529;SDS011;24301;54.332;48.386;2022-12-26T06:19:06;8.90;;;4.63;;
38529;SDS011;24301;54.332;48.386;2022-12-26T06:21:33;7.97;;;4.77;;
38529;SDS011;24301;54.332;48.386;2022-12-26T06:23:58;8.50;;;5.57;;
38529;SDS011;24301;54.332;48.386;2022-12-26T06:26:24;9.43;;;5.63;;
38529;SDS011;24301;54.332;48.386;2022-12-26T06:28:50;9.03;;;5.47;;
38529;SDS011;24301;54.332;48.386;2022-12-26T06:31:17;7.77;;;5.10;;
38529;SDS011;24301;54.332;48.386;2022-12-26T06:33:47;7.43;;;4.93;;
38529;SDS011;24301;54.332;48.386;2022-12-26T06:36:16;7.03;;;4.70;;
38529;SDS011;24301;54.332;48.386;2022-12-26T06:38:44;7.23;;;4.30;;
38529;SDS011;24301;54.332;48.386;2022-12-26T06:41:12;7.77;;;4.60;;
38529;SDS011;24301;54.332;48.386;2022-12-26T06:43:40;8.80;;;4.67;;
38529;SDS011;24301;54.332;48.386;2022-12-26T06:46:07;6.67;;;4.13;;
38529;SDS011;24301;54.332;48.386;2022-12-26T06:48:36;8.50;;;4.73;;
38529;SDS011;24301;54.332;48.386;2022-12-26T06:51:06;7.60;;;4.80;;
38529;SDS011;24301;54.332;48.386;2022-12-26T06:53:35;7.23;;;4.33;;
38529;SDS011;24301;54.332;48.386;2022-12-26T06:56:07;7.40;;;4.87;;
38529;SDS011;24301;54.332;48.386;2022-12-26T06:58:38;8.23;;;5.00;;
38529;SDS011;24301;54.332;48.386;2022-12-26T07:01:04;7.33;;;4.60;;
38529;SDS011;24301;54.332;48.386;2022-12-26T07:03:36;10.07;;;5.73;;
38529;SDS011;24301;54.332;48.386;2022-12-26T07:06:03;8.27;;;4.83;;
38529;SDS011;24301;54.332;48.386;2022-12-26T07:08:30;6.87;;;4.83;;
38529;SDS011;24301;54.332;48.386;2022-12-26T07:10:56;8.93;;;5.73;;
38529;SDS011;24301;54.332;48.386;2022-12-26T07:13:22;5.93;;;4.30;;
38529;SDS011;24301;54.332;48.386;2022-12-26T07:15:48;6.20;;;3.70;;
38529;SDS011;24301;54.332;48.386;2022-12-26T07:18:14;7.87;;;4.67;;
38529;SDS011;24301;54.332;48.386;2022-12-26T07:20:40;6.07;;;3.83;;
38529;SDS011;24301;54.332;48.386;2022-12-26T07:23:06;6.70;;;4.77;;
38529;SDS011;24301;54.332;48.386;2022-12-26T07:25:31;9.33;;;4.47;;
38529;SDS011;24301;54.332;48.386;2022-12-26T07:27:57;8.23;;;4.27;;
38529;SDS011;24301;54.332;48.386;2022-12-26T07:30:24;8.80;;;4.40;;
38529;SDS011;24301;54.332;48.386;2022-12-26T07:32:51;8.03;;;4.70;;
38529;SDS011;24301;54.332;48.386;2022-12-26T07:35:17;8.93;;;4.67;;
38529;SDS011;24301;54.332;48.386;2022-12-26T07:37:43;6.90;;;4.17;;
38529;SDS011;24301;54.332;48.386;2022-12-26T07:40:10;8.00;;;4.97;;
38529;SDS011;24301;54.332;48.386;2022-12-26T07:42:36;7.17;;;3.60;;
38529;SDS011;24301;54.332;48.386;2022-12-26T07:45:02;5.87;;;4.10;;
38529;SDS011;24301;54.332;48.386;2022-12-26T07:47:29;5.43;;;3.60;;
38529;SDS011;24301;54.332;48.386;2022-12-26T07:49:54;8.00;;;4.40;;
38529;SDS011;24301;54.332;48.386;2022-12-26T07:52:20;7.50;;;4.47;;
38529;SDS011;24301;54.332;48.386;2022-12-26T07:54:47;8.33;;;3.80;;
38529;SDS011;24301;54.332;48.386;2022-12-26T07:57:13;7.13;;;4.73;;
38529;SDS011;24301;54.332;48.386;2022-12-26T07:59:39;6.97;;;4.63;;
38529;SDS011;24301;54.332;48.386;2022-12-26T08:02:05;7.10;;;4.20;;
38529;SDS011;24301;54.332;48.386;2022-12-26T08:04:31;6.03;;;4.37;;
38529;SDS011;24301;54.332;48.386;2022-12-26T08:06:57;6.27;;;3.63;;
38529;SDS011;24301;54.332;48.386;2022-12-26T08:09:23;6.20;;;3.53;;
38529;SDS011;24301;54.332;48.386;2022-12-26T08:11:49;5.77;;;3.33;;
38529;SDS011;24301;54.332;48.386;2022-12-26T08:14:15;5.67;;;3.70;;
38529;SDS011;24301;54.332;48.386;2022-12-26T08:16:42;6.60;;;3.33;;
38529;SDS011;24301;54.332;48.386;2022-12-26T08:19:09;6.37;;;3.80;;
38529;SDS011;24301;54.332;48.386;2022-12-26T08:21:36;4.33;;;2.80;;
38529;SDS011;24301;54.332;48.386;2022-12-26T08:24:02;5.70;;;3.60;;
38529;SDS011;24301;54.332;48.386;2022-12-26T08:26:28;6.50;;;3.53;;
38529;SDS011;24301;54.332;48.386;2022-12-26T08:28:54;4.77;;;2.60;;
38529;SDS011;24301;54.332;48.386;2022-12-26T08:31:23;5.67;;;3.50;;
38529;SDS011;24301;54.332;48.386;2022-12-26T08:33:49;5.33;;;3.30;;
38529;SDS011;24301;54.332;48.386;2022-12-26T08:36:18;5.37;;;3.60;;
38529;SDS011;24301;54.332;48.386;2022-12-26T08:38:44;5.93;;;3.20;;
38529;SDS011;24301;54.332;48.386;2022-12-26T08:41:10;5.37;;;3.00;;
38529;SDS011;24301;54.332;48.386;2022-12-26T08:43:36;5.70;;;3.43;;
38529;SDS011;24301;54.332;48.386;2022-12-26T08:46:04;5.97;;;3.43;;
38529;SDS011;24301;54.332;48.386;2022-12-26T08:48:32;5.43;;;3.20;;
38529;SDS011;24301;54.332;48.386;2022-12-26T08:50:58;5.30;;;3.33;;
38529;SDS011;24301;54.332;48.386;2022-12-26T08:53:26;5.53;;;3.43;;
38529;SDS011;24301;54.332;48.386;2022-12-26T08:55:53;4.93;;;3.00;;
38529;SDS011;24301;54.332;48.386;2022-12-26T08:58:20;5.27;;;3.57;;
38529;SDS011;24301;54.332;48.386;2022-12-26T09:00:46;5.63;;;3.63;;
38529;SDS011;24301;54.332;48.386;2022-12-26T09:03:13;4.93;;;3.27;;
38529;SDS011;24301;54.332;48.386;2022-12-26T09:05:40;4.53;;;2.77;;
38529;SDS011;24301;54.332;48.386;2022-12-26T09:08:29;4.10;;;2.70;;
38529;SDS011;24301;54.332;48.386;2022-12-26T09:11:06;5.70;;;2.97;;
38529;SDS011;24301;54.332;48.386;2022-12-26T09:13:51;4.37;;;2.80;;
38529;SDS011;24301;54.332;48.386;2022-12-26T09:16:24;4.13;;;3.00;;
38529;SDS011;24301;54.332;48.386;2022-12-26T09:18:53;6.33;;;3.03;;
38529;SDS011;24301;54.332;48.386;2022-12-26T09:21:21;4.70;;;3.07;;
38529;SDS011;24301;54.332;48.386;2022-12-26T09:23:47;6.13;;;3.23;;
38529;SDS011;24301;54.332;48.386;2022-12-26T09:26:18;4.17;;;2.50;;
38529;SDS011;24301;54.332;48.386;2022-12-26T09:28:44;3.40;;;2.50;;
38529;SDS011;24301;54.332;48.386;2022-12-26T09:31:12;5.57;;;3.33;;
38529;SDS011;24301;54.332;48.386;2022-12-26T09:33:40;4.00;;;2.90;;
38529;SDS011;24301;54.332;48.386;2022-12-26T09:36:08;3.73;;;3.03;;
38529;SDS011;24301;54.332;48.386;2022-12-26T09:38:36;5.03;;;3.20;;
38529;SDS011;24301;54.332;48.386;2022-12-26T09:46:01;3.73;;;2.70;;
38529;SDS011;24301;54.332;48.386;2022-12-26T09:48:44;4.00;;;2.73;;
38529;SDS011;24301;54.332;48.386;2022-12-26T09:51:19;5.73;;;3.37;;
38529;SDS011;24301;54.332;48.386;2022-12-26T09:53:45;4.47;;;2.87;;
38529;SDS011;24301;54.332;48.386;2022-12-26T09:56:13;4.63;;;2.70;;
38529;SDS011;24301;54.332;48.386;2022-12-26T09:59:20;9.83;;;4.83;;
38529;SDS011;24301;54.332;48.386;2022-12-26T10:01:50;4.73;;;2.83;;
38529;SDS011;24301;54.332;48.386;2022-12-26T10:04:26;4.70;;;3.07;;
38529;SDS011;24301;54.332;48.386;2022-12-26T10:12:04;5.73;;;3.30;;
38529;SDS011;24301;54.332;48.386;2022-12-26T10:17:39;4.00;;;2.50;;
38529;SDS011;24301;54.332;48.386;2022-12-26T10:20:33;3.80;;;2.63;;
38529;SDS011;24301;54.332;48.386;2022-12-26T10:26:03;4.03;;;3.07;;
38529;SDS011;24301;54.332;48.386;2022-12-26T10:28:43;3.57;;;2.57;;
38529;SDS011;24301;54.332;48.386;2022-12-26T10:31:13;4.80;;;2.90;;
38529;SDS011;24301;54.332;48.386;2022-12-26T10:36:32;4.93;;;3.27;;
38529;SDS011;24301;54.332;48.386;2022-12-26T10:39:04;5.47;;;3.37;;
38529;SDS011;24301;54.332;48.386;2022-12-26T10:41:39;6.47;;;3.93;;
38529;SDS011;24301;54.332;48.386;2022-12-26T10:44:12;5.83;;;3.63;;
38529;SDS011;24301;54.332;48.386;2022-12-26T10:46:55;5.93;;;3.23;;
38529;SDS011;24301;54.332;48.386;2022-12-26T10:49:24;6.97;;;4.47;;
38529;SDS011;24301;54.332;48.386;2022-12-26T10:51:52;6.77;;;4.63;;
38529;SDS011;24301;54.332;48.386;2022-12-26T10:54:21;6.23;;;3.93;;
38529;SDS011;24301;54.332;48.386;2022-12-26T10:56:48;8.70;;;5.13;;
38529;SDS011;24301;54.332;48.386;2022-12-26T10:59:22;5.63;;;3.27;;
38529;SDS011;24301;54.332;48.386;2022-12-26T11:02:09;6.77;;;4.00;;
38529;SDS011;24301;54.332;48.386;2022-12-26T11:05:13;8.57;;;4.50;;
38529;SDS011;24301;54.332;48.386;2022-12-26T11:07:45;7.07;;;4.73;;
38529;SDS011;24301;54.332;48.386;2022-12-26T11:10:16;7.00;;;3.93;;
38529;SDS011;24301;54.332;48.386;2022-12-26T11:12:49;6.93;;;3.93;;
38529;SDS011;24301;54.332;48.386;2022-12-26T11:15:22;6.10;;;3.73;;
38529;SDS011;24301;54.332;48.386;2022-12-26T11:17:53;6.90;;;4.20;;
38529;SDS011;24301;54.332;48.386;2022-12-26T11:20:31;6.83;;;3.33;;
38529;SDS011;24301;54.332;48.386;2022-12-26T11:25:58;5.43;;;3.60;;
38529;SDS011;24301;54.332;48.386;2022-12-26T11:28:27;7.03;;;4.20;;
38529;SDS011;24301;54.332;48.386;2022-12-26T11:30:58;6.43;;;3.73;;
38529;SDS011;24301;54.332;48.386;2022-12-26T11:33:27;8.13;;;4.27;;
38529;SDS011;24301;54.332;48.386;2022-12-26T11:36:07;5.50;;;3.33;;
38529;SDS011;24301;54.332;48.386;2022-12-26T11:38:49;5.10;;;3.13;;
38529;SDS011;24301;54.332;48.386;2022-12-26T11:41:36;5.07;;;3.10;;
38529;SDS011;24301;54.332;48.386;2022-12-26T11:44:21;5.57;;;3.93;;
38529;SDS011;24301;54.332;48.386;2022-12-26T11:47:15;6.10;;;3.53;;
38529;SDS011;24301;54.332;48.386;2022-12-26T11:52:35;6.07;;;3.43;;
38529;SDS011;24301;54.332;48.386;2022-12-26T11:57:59;6.63;;;3.37;;
38529;SDS011;24301;54.332;48.386;2022-12-26T12:01:15;5.93;;;3.63;;
38529;SDS011;24301;54.332;48.386;2022-12-26T12:03:25;9.63;;;4.53;;
38529;SDS011;24301;54.332;48.386;2022-12-26T12:08:42;6.97;;;4.67;;
38529;SDS011;24301;54.332;48.386;2022-12-26T12:11:34;7.40;;;4.43;;
38529;SDS011;24301;54.332;48.386;2022-12-26T12:49:04;5.83;;;3.23;;
38529;SDS011;24301;54.332;48.386;2022-12-26T12:51:56;7.10;;;3.80;;
38529;SDS011;24301;54.332;48.386;2022-12-26T12:54:45;7.33;;;3.77;;
38529;SDS011;24301;54.332;48.386;2022-12-26T13:08:44;7.07;;;3.77;;
38529;SDS011;24301;54.332;48.386;2022-12-26T13:11:24;6.87;;;3.80;;
38529;SDS011;24301;54.332;48.386;2022-12-26T13:14:12;9.33;;;4.67;;
38529;SDS011;24301;54.332;48.386;2022-12-26T13:16:45;6.17;;;4.20;;
38529;SDS011;24301;54.332;48.386;2022-12-26T13:19:19;7.23;;;3.43;;
38529;SDS011;24301;54.332;48.386;2022-12-26T13:21:50;5.30;;;3.17;;
38529;SDS011;24301;54.332;48.386;2022-12-26T13:27:34;6.07;;;2.97;;
38529;SDS011;24301;54.332;48.386;2022-12-26T13:30:05;5.50;;;3.87;;
38529;SDS011;24301;54.332;48.386;2022-12-26T13:32:37;6.00;;;3.30;;
38529;SDS011;24301;54.332;48.386;2022-12-26T13:35:04;4.60;;;2.80;;
38529;SDS011;24301;54.332;48.386;2022-12-26T13:42:38;5.30;;;3.00;;
38529;SDS011;24301;54.332;48.386;2022-12-26T13:50:54;8.73;;;5.80;;
38529;SDS011;24301;54.332;48.386;2022-12-26T13:55:52;7.57;;;4.50;;
38529;SDS011;24301;54.332;48.386;2022-12-26T14:24:08;4.77;;;3.23;;
38529;SDS011;24301;54.332;48.386;2022-12-26T14:35:36;5.57;;;3.40;;
38529;SDS011;24301;54.332;48.386;2022-12-26T14:43:29;5.00;;;3.07;;
38529;SDS011;24301;54.332;48.386;2022-12-26T14:46:07;6.70;;;3.33;;
38529;SDS011;24301;54.332;48.386;2022-12-26T14:48:59;5.50;;;3.17;;
38529;SDS011;24301;54.332;48.386;2022-12-26T14:51:43;4.83;;;2.67;;
38529;SDS011;24301;54.332;48.386;2022-12-26T14:56:41;6.43;;;3.80;;
38529;SDS011;24301;54.332;48.386;2022-12-26T14:59:25;4.40;;;2.80;;
38529;SDS011;24301;54.332;48.386;2022-12-26T15:02:08;5.30;;;2.97;;
38529;SDS011;24301;54.332;48.386;2022-12-26T15:04:55;6.47;;;3.17;;
38529;SDS011;24301;54.332;48.386;2022-12-26T15:33:20;4.80;;;2.67;;
38529;SDS011;24301;54.332;48.386;2022-12-26T15:36:12;5.37;;;3.60;;
38529;SDS011;24301;54.332;48.386;2022-12-26T15:41:39;4.60;;;3.03;;
38529;SDS011;24301;54.332;48.386;2022-12-26T15:52:23;6.63;;;4.57;;
38529;SDS011;24301;54.332;48.386;2022-12-26T16:00:14;4.37;;;2.73;;
38529;SDS011;24301;54.332;48.386;2022-12-26T16:11:58;4.67;;;2.80;;
38529;SDS011;24301;54.332;48.386;2022-12-26T16:14:01;5.23;;;2.70;;
38529;SDS011;24301;54.332;48.386;2022-12-26T16:16:36;4.63;;;3.00;;
38529;SDS011;24301;54.332;48.386;2022-12-26T16:19:22;5.13;;;3.43;;
38529;SDS011;24301;54.332;48.386;2022-12-26T16:21:59;5.93;;;2.80;;
38529;SDS011;24301;54.332;48.386;2022-12-26T16:24:46;5.43;;;3.00;;
38529;SDS011;24301;54.332;48.386;2022-12-26T16:27:16;5.63;;;3.80;;
38529;SDS011;24301;54.332;48.386;2022-12-26T16:29:46;5.33;;;3.07;;
38529;SDS011;24301;54.332;48.386;2022-12-26T16:32:20;5.90;;;2.97;;
38529;SDS011;24301;54.332;48.386;2022-12-26T16:34:50;5.50;;;3.10;;
38529;SDS011;24301;54.332;48.386;2022-12-26T16:37:17;6.07;;;2.87;;
38529;SDS011;24301;54.332;48.386;2022-12-26T16:40:32;6.57;;;2.90;;
38529;SDS011;24301;54.332;48.386;2022-12-26T16:42:59;6.63;;;3.93;;
38529;SDS011;24301;54.332;48.386;2022-12-26T16:45:31;8.47;;;3.47;;
38529;SDS011;24301;54.332;48.386;2022-12-26T16:48:21;5.77;;;3.07;;
38529;SDS011;24301;54.332;48.386;2022-12-26T16:51:03;7.07;;;3.27;;
38529;SDS011;24301;54.332;48.386;2022-12-26T16:53:49;6.23;;;4.10;;
38529;SDS011;24301;54.332;48.386;2022-12-26T16:56:25;6.83;;;3.57;;
38529;SDS011;24301;54.332;48.386;2022-12-26T16:59:09;6.70;;;4.13;;
38529;SDS011;24301;54.332;48.386;2022-12-26T17:01:38;7.40;;;3.10;;
38529;SDS011;24301;54.332;48.386;2022-12-26T17:04:06;6.80;;;3.50;;
38529;SDS011;24301;54.332;48.386;2022-12-26T17:06:47;5.73;;;3.40;;
38529;SDS011;24301;54.332;48.386;2022-12-26T17:09:17;7.03;;;4.15;;
38529;SDS011;24301;54.332;48.386;2022-12-26T17:14:34;7.30;;;3.87;;
38529;SDS011;24301;54.332;48.386;2022-12-26T17:17:24;7.83;;;4.50;;
38529;SDS011;24301;54.332;48.386;2022-12-26T17:19:53;11.47;;;4.30;;
38529;SDS011;24301;54.332;48.386;2022-12-26T17:22:31;7.13;;;3.87;;
38529;SDS011;24301;54.332;48.386;2022-12-26T17:27:46;6.97;;;4.00;;
38529;SDS011;24301;54.332;48.386;2022-12-26T17:30:36;7.67;;;4.00;;
38529;SDS011;24301;54.332;48.386;2022-12-26T17:35:34;7.07;;;4.40;;
38529;SDS011;24301;54.332;48.386;2022-12-26T17:38:02;4.70;;;3.43;;
38529;SDS011;24301;54.332;48.386;2022-12-26T17:40:33;7.80;;;4.20;;
38529;SDS011;24301;54.332;48.386;2022-12-26T17:45:35;6.57;;;3.90;;
38529;SDS011;24301;54.332;48.386;2022-12-26T17:48:02;6.27;;;3.93;;
38529;SDS011;24301;54.332;48.386;2022-12-26T17:50:33;6.50;;;4.07;;
38529;SDS011;24301;54.332;48.386;2022-12-26T17:53:04;8.60;;;4.23;;
38529;SDS011;24301;54.332;48.386;2022-12-26T17:55:32;9.47;;;4.57;;
38529;SDS011;24301;54.332;48.386;2022-12-26T17:57:59;6.43;;;3.50;;
38529;SDS011;24301;54.332;48.386;2022-12-26T18:00:30;7.07;;;3.43;;
38529;SDS011;24301;54.332;48.386;2022-12-26T18:02:56;7.03;;;3.43;;
38529;SDS011;24301;54.332;48.386;2022-12-26T18:05:22;7.77;;;3.80;;
38529;SDS011;24301;54.332;48.386;2022-12-26T18:07:48;8.03;;;4.67;;
38529;SDS011;24301;54.332;48.386;2022-12-26T18:10:18;7.33;;;4.03;;
38529;SDS011;24301;54.332;48.386;2022-12-26T18:12:46;6.80;;;4.00;;
38529;SDS011;24301;54.332;48.386;2022-12-26T18:15:13;6.27;;;3.70;;
38529;SDS011;24301;54.332;48.386;2022-12-26T18:17:40;7.27;;;4.40;;
38529;SDS011;24301;54.332;48.386;2022-12-26T18:20:07;7.57;;;4.30;;
38529;SDS011;24301;54.332;48.386;2022-12-26T18:25:27;9.07;;;5.20;;
38529;SDS011;24301;54.332;48.386;2022-12-26T18:27:53;10.40;;;4.87;;
38529;SDS011;24301;54.332;48.386;2022-12-26T18:30:22;7.03;;;3.87;;
38529;SDS011;24301;54.332;48.386;2022-12-26T18:32:50;6.53;;;3.93;;
38529;SDS011;24301;54.332;48.386;2022-12-26T18:35:17;6.37;;;3.83;;
38529;SDS011;24301;54.332;48.386;2022-12-26T18:37:48;6.70;;;3.80;;
38529;SDS011;24301;54.332;48.386;2022-12-26T18:42:56;6.47;;;3.90;;
38529;SDS011;24301;54.332;48.386;2022-12-26T18:45:23;5.73;;;3.30;;
38529;SDS011;24301;54.332;48.386;2022-12-26T18:47:52;6.77;;;3.80;;
38529;SDS011;24301;54.332;48.386;2022-12-26T18:50:18;7.43;;;3.53;;
38529;SDS011;24301;54.332;48.386;2022-12-26T18:52:45;6.17;;;3.93;;
38529;SDS011;24301;54.332;48.386;2022-12-26T18:55:33;8.83;;;4.40;;
38529;SDS011;24301;54.332;48.386;2022-12-26T18:58:02;5.63;;;3.67;;
38529;SDS011;24301;54.332;48.386;2022-12-26T19:00:28;8.03;;;3.43;;
38529;SDS011;24301;54.332;48.386;2022-12-26T19:02:55;6.37;;;3.63;;
38529;SDS011;24301;54.332;48.386;2022-12-26T19:05:22;8.03;;;4.47;;
38529;SDS011;24301;54.332;48.386;2022-12-26T19:07:52;7.20;;;4.60;;
38529;SDS011;24301;54.332;48.386;2022-12-26T19:10:19;8.80;;;5.20;;
38529;SDS011;24301;54.332;48.386;2022-12-26T19:12:47;6.37;;;3.67;;
38529;SDS011;24301;54.332;48.386;2022-12-26T19:15:14;8.13;;;3.30;;
38529;SDS011;24301;54.332;48.386;2022-12-26T19:17:40;6.93;;;4.07;;
38529;SDS011;24301;54.332;48.386;2022-12-26T19:20:09;6.87;;;4.07;;
38529;SDS011;24301;54.332;48.386;2022-12-26T19:22:49;8.33;;;4.53;;
38529;SDS011;24301;54.332;48.386;2022-12-26T19:25:19;7.60;;;4.10;;
38529;SDS011;24301;54.332;48.386;2022-12-26T19:27:47;8.03;;;4.77;;
38529;SDS011;24301;54.332;48.386;2022-12-26T19:30:14;7.50;;;3.87;;
38529;SDS011;24301;54.332;48.386;2022-12-26T19:32:41;6.40;;;4.10;;